Time;durP1;ratioP1;P1;durP2;ratioP2;P2;SDS_P1;SDS_P2;PMS_P1;PMS_P2;Temp;Humidity;BMP_temperature;BMP_pressure;BME280_temperature;BME280_humidity;BME280_pressure;Samples;Min_cycle;Max_cycle;Signal;HPM_P1;HPM_P2
2023/01/06 00:00:34;;;;;;;33.20;15.73;;;10.70;99.90;;;;;;5052871;28;20043;-88
2023/01/06 00:03:00;;;;;;;29.17;15.80;;;10.70;99.90;;;;;;5061469;28;20032;-88
2023/01/06 00:05:25;;;;;;;28.33;15.88;;;10.80;99.90;;;;;;5036367;28;20039;-88
2023/01/06 00:07:51;;;;;;;33.20;16.00;;;10.80;99.90;;;;;;5036801;28;20032;-88
2023/01/06 00:10:18;;;;;;;30.30;15.68;;;10.80;99.90;;;;;;5052474;28;20043;-88
2023/01/06 00:12:44;;;;;;;26.67;14.70;;;10.80;99.90;;;;;;5036118;28;20036;-88
2023/01/06 00:15:10;;;;;;;27.05;15.70;;;10.80;99.90;;;;;;5053302;28;20056;-88
2023/01/06 00:17:36;;;;;;;34.22;14.50;;;10.80;99.90;;;;;;5036281;28;20118;-88
2023/01/06 00:20:02;;;;;;;29.85;14.40;;;10.80;99.90;;;;;;5052901;28;20040;-88
2023/01/06 00:22:28;;;;;;;26.40;14.00;;;10.80;99.90;;;;;;5053169;28;20123;-88
2023/01/06 00:24:53;;;;;;;26.60;14.10;;;10.80;99.90;;;;;;5052578;28;20528;-89
2023/01/06 00:27:19;;;;;;;27.63;14.00;;;10.80;99.90;;;;;;5058840;28;20474;-88
2023/01/06 00:29:45;;;;;;;28.10;13.30;;;10.80;99.90;;;;;;5052739;28;20024;-88
2023/01/06 00:32:10;;;;;;;22.63;11.98;;;10.80;99.90;;;;;;5036168;28;20517;-89
2023/01/06 00:34:36;;;;;;;26.48;12.00;;;10.80;99.90;;;;;;5052434;28;20035;-89
2023/01/06 00:37:02;;;;;;;31.65;12.70;;;10.80;99.90;;;;;;5036242;28;20043;-88
2023/01/06 00:39:28;;;;;;;25.67;12.18;;;10.80;99.90;;;;;;5036482;28;20040;-88
2023/01/06 00:42:03;;;;;;;20.25;11.10;;;10.80;99.90;;;;;;5052637;28;20041;-88
2023/01/06 00:44:29;;;;;;;23.73;10.95;;;10.80;99.90;;;;;;5034585;28;20055;-88
2023/01/06 00:46:55;;;;;;;22.45;10.85;;;10.80;99.90;;;;;;5052376;28;20520;-88
2023/01/06 00:49:21;;;;;;;18.30;9.95;;;10.80;99.90;;;;;;5052386;28;20033;-88
2023/01/06 00:51:50;;;;;;;18.10;9.93;;;10.80;99.90;;;;;;5035852;28;20029;-88
2023/01/06 00:54:16;;;;;;;18.75;10.02;;;10.90;99.90;;;;;;5035673;28;20094;-88
2023/01/06 00:56:44;;;;;;;18.10;8.50;;;10.90;99.90;;;;;;5052974;28;20033;-88
2023/01/06 00:59:12;;;;;;;19.25;8.60;;;10.90;99.90;;;;;;5052544;28;20089;-88
2023/01/06 01:01:38;;;;;;;17.40;7.43;;;10.90;99.90;;;;;;5035848;28;20044;-88
2023/01/06 01:04:04;;;;;;;20.63;8.73;;;10.90;99.90;;;;;;5035622;28;20406;-88
2023/01/06 01:06:29;;;;;;;14.73;7.43;;;10.90;99.90;;;;;;5052339;28;20082;-88
2023/01/06 01:08:57;;;;;;;15.77;7.38;;;10.90;99.90;;;;;;5035616;28;20037;-88
2023/01/06 01:14:09;;;;;;;14.70;7.07;;;10.90;99.90;;;;;;5051996;28;20048;-88
2023/01/06 01:16:35;;;;;;;12.38;5.85;;;10.90;99.90;;;;;;5036114;28;20071;-88
2023/01/06 01:19:01;;;;;;;14.80;6.60;;;10.90;99.90;;;;;;5035534;28;20072;-88
2023/01/06 01:21:26;;;;;;;14.05;5.25;;;10.80;99.90;;;;;;5052405;28;20560;-88
2023/01/06 01:23:52;;;;;;;11.80;4.85;;;10.90;99.90;;;;;;5038466;28;20123;-88
2023/01/06 01:26:17;;;;;;;14.32;6.63;;;10.90;99.90;;;;;;5056468;28;20093;-88
2023/01/06 01:28:43;;;;;;;11.30;6.22;;;10.90;99.90;;;;;;5056324;28;20127;-88
2023/01/06 01:31:09;;;;;;;13.18;6.10;;;10.90;99.90;;;;;;5056138;28;20040;-87
2023/01/06 01:33:35;;;;;;;11.48;6.00;;;10.90;99.90;;;;;;5055436;28;20059;-88
2023/01/06 01:36:14;;;;;;;15.38;5.95;;;10.80;99.90;;;;;;5056301;28;20094;-88
2023/01/06 01:38:40;;;;;;;15.68;6.63;;;10.80;99.90;;;;;;5056161;28;20047;-88
2023/01/06 01:41:05;;;;;;;13.93;5.90;;;10.80;99.90;;;;;;5039167;28;20285;-88
2023/01/06 01:43:46;;;;;;;17.13;6.93;;;10.80;99.90;;;;;;5056104;28;20040;-88
2023/01/06 01:46:15;;;;;;;12.30;5.63;;;10.80;99.90;;;;;;5055101;28;20049;-88
2023/01/06 01:48:41;;;;;;;13.50;6.15;;;10.80;99.90;;;;;;5055235;28;20543;-88
2023/01/06 01:51:12;;;;;;;16.63;5.45;;;10.80;99.90;;;;;;5056234;28;20565;-88
2023/01/06 01:53:42;;;;;;;15.88;5.47;;;10.80;99.90;;;;;;5038708;28;20040;-87
2023/01/06 01:56:14;;;;;;;11.65;5.25;;;10.80;99.90;;;;;;5035214;28;20498;-88
2023/01/06 01:58:44;;;;;;;15.48;6.38;;;10.80;99.90;;;;;;5055925;28;20036;-88
2023/01/06 02:01:11;;;;;;;11.90;5.10;;;10.80;99.90;;;;;;5056368;28;20076;-88
2023/01/06 02:03:38;;;;;;;10.23;5.00;;;10.80;99.90;;;;;;5039404;28;20076;-89
2023/01/06 02:06:09;;;;;;;11.13;5.07;;;10.90;99.90;;;;;;5053345;28;20102;-88
2023/01/06 02:08:43;;;;;;;10.90;4.90;;;10.90;99.90;;;;;;5032128;28;20063;-86
2023/01/06 02:11:09;;;;;;;12.60;4.38;;;10.90;99.90;;;;;;5055644;28;20490;-86
2023/01/06 02:13:39;;;;;;;12.68;4.63;;;10.90;99.90;;;;;;5055746;28;20028;-86
2023/01/06 02:16:23;;;;;;;10.38;4.50;;;10.90;99.90;;;;;;5052657;28;20044;-88
2023/01/06 02:19:12;;;;;;;10.43;4.53;;;10.90;99.90;;;;;;5039371;28;20032;-88
2023/01/06 02:22:05;;;;;;;8.60;3.85;;;10.90;99.90;;;;;;5039093;28;20048;-88
2023/01/06 02:25:12;;;;;;;9.63;3.28;;;10.90;99.90;;;;;;5055850;28;20048;-88
2023/01/06 02:27:59;;;;;;;11.27;4.47;;;10.90;99.90;;;;;;5028285;28;20094;-88
2023/01/06 02:30:40;;;;;;;8.48;3.50;;;10.80;99.90;;;;;;5055321;28;20153;-88
2023/01/06 02:33:20;;;;;;;12.25;3.92;;;10.90;99.90;;;;;;5038255;28;20047;-88
2023/01/06 02:36:19;;;;;;;9.13;3.72;;;10.90;99.90;;;;;;5035926;28;20040;-89
2023/01/06 02:38:56;;;;;;;7.95;3.72;;;10.90;99.90;;;;;;5056089;28;20041;-88
2023/01/06 02:41:45;;;;;;;12.73;3.63;;;10.90;99.90;;;;;;5052978;28;20032;-88
2023/01/06 02:45:08;;;;;;;10.07;4.05;;;10.90;99.90;;;;;;5038434;28;20044;-88
2023/01/06 02:47:48;;;;;;;9.30;4.03;;;10.90;99.90;;;;;;4954069;28;20038;-88
2023/01/06 02:50:22;;;;;;;10.88;4.40;;;10.80;99.90;;;;;;4970799;28;20532;-88
2023/01/06 02:53:24;;;;;;;9.93;4.05;;;10.90;99.90;;;;;;4979805;28;20049;-88
2023/01/06 02:55:55;;;;;;;9.35;4.22;;;10.80;99.90;;;;;;4954893;28;20043;-87
2023/01/06 02:58:23;;;;;;;9.95;4.55;;;10.80;99.90;;;;;;4956316;28;20043;-88
2023/01/06 03:00:56;;;;;;;10.27;4.82;;;10.80;99.90;;;;;;4955511;28;20635;-88
2023/01/06 03:03:24;;;;;;;12.35;4.35;;;10.80;99.90;;;;;;4955448;28;20046;-88
2023/01/06 03:05:58;;;;;;;10.55;4.35;;;10.90;99.90;;;;;;4968876;28;20557;-89
2023/01/06 03:08:27;;;;;;;10.70;5.60;;;10.80;99.90;;;;;;4952928;28;20039;-88
2023/01/06 03:10:56;;;;;;;9.10;5.38;;;10.80;99.90;;;;;;4955316;28;20039;-89
2023/01/06 03:13:32;;;;;;;11.75;5.95;;;10.80;99.90;;;;;;4955622;28;20129;-88
2023/01/06 03:15:58;;;;;;;13.38;7.28;;;10.80;99.90;;;;;;4970889;28;20756;-88
2023/01/06 03:18:25;;;;;;;12.02;7.43;;;10.80;99.90;;;;;;5011655;28;20517;-88
2023/01/06 03:20:53;;;;;;;14.60;9.00;;;10.80;99.90;;;;;;5054241;28;20113;-88
2023/01/06 03:23:19;;;;;;;16.25;9.10;;;10.70;99.90;;;;;;5037732;28;20046;-88
2023/01/06 03:25:45;;;;;;;16.73;10.00;;;10.70;99.90;;;;;;5037707;28;20128;-88
2023/01/06 03:28:10;;;;;;;15.88;9.98;;;10.70;99.90;;;;;;5054678;28;20127;-88
2023/01/06 03:30:54;;;;;;;15.15;10.35;;;10.70;99.90;;;;;;5054248;28;20037;-88
2023/01/06 03:33:32;;;;;;;16.63;10.38;;;10.70;99.90;;;;;;5037984;28;20123;-88
2023/01/06 03:36:04;;;;;;;17.38;10.57;;;10.70;99.90;;;;;;5067223;28;20417;-89
2023/01/06 03:38:42;;;;;;;16.30;10.82;;;10.70;99.90;;;;;;5054204;28;20064;-89
2023/01/06 03:43:10;;;;;;;16.15;9.50;;;10.60;99.90;;;;;;5035095;28;20041;-88
2023/01/06 03:44:27;;;;;;;16.50;9.55;;;10.60;99.90;;;;;;5047377;28;20383;-88
2023/01/06 03:47:03;;;;;;;17.55;9.98;;;10.60;99.90;;;;;;5037113;28;20123;-88
2023/01/06 03:49:33;;;;;;;13.40;9.02;;;10.60;99.90;;;;;;5037121;28;20040;-88
2023/01/06 03:52:06;;;;;;;16.98;9.65;;;10.70;99.90;;;;;;5037170;28;20758;-88
2023/01/06 03:54:59;;;;;;;14.57;8.70;;;10.70;99.90;;;;;;5037202;28;20056;-88
2023/01/06 03:57:38;;;;;;;13.88;8.50;;;10.70;99.90;;;;;;5032172;28;20094;-88
2023/01/06 04:00:30;;;;;;;14.80;9.38;;;10.70;99.90;;;;;;5053756;28;20119;-88
2023/01/06 04:02:55;;;;;;;16.27;7.75;;;10.70;99.90;;;;;;5032229;28;20637;-88
2023/01/06 04:05:23;;;;;;;12.98;7.93;;;10.70;99.90;;;;;;5037322;28;20778;-89
2023/01/06 04:07:49;;;;;;;13.10;8.25;;;10.70;99.90;;;;;;5053504;28;20040;-88
2023/01/06 04:10:17;;;;;;;11.85;7.20;;;10.70;99.90;;;;;;5036665;28;20043;-89
2023/01/06 04:12:42;;;;;;;12.98;7.57;;;10.70;99.90;;;;;;5036781;28;20032;-88
2023/01/06 04:15:08;;;;;;;13.85;7.00;;;10.70;99.90;;;;;;5036778;28;20093;-89
2023/01/06 04:17:34;;;;;;;13.05;6.20;;;10.70;99.90;;;;;;5054004;28;20041;-88
2023/01/06 04:20:00;;;;;;;11.15;5.93;;;10.70;99.90;;;;;;5053284;28;20051;-88
2023/01/06 04:22:25;;;;;;;10.63;5.30;;;10.70;99.90;;;;;;5036879;28;20044;-88
2023/01/06 04:24:51;;;;;;;13.52;5.90;;;10.70;99.90;;;;;;5036873;28;20034;-89
2023/01/06 04:27:16;;;;;;;11.20;6.22;;;10.70;99.90;;;;;;5053446;28;20493;-88
2023/01/06 04:29:42;;;;;;;12.40;6.05;;;10.70;99.90;;;;;;5036693;28;20037;-88
2023/01/06 04:32:07;;;;;;;12.70;6.18;;;10.70;99.90;;;;;;5036429;28;20379;-88
2023/01/06 04:34:33;;;;;;;10.13;5.20;;;10.70;99.90;;;;;;5037021;28;20074;-87
2023/01/06 04:36:59;;;;;;;10.90;5.25;;;10.70;99.90;;;;;;5053604;28;20040;-88
2023/01/06 04:39:24;;;;;;;9.23;5.03;;;10.70;99.90;;;;;;5037121;28;20494;-88
2023/01/06 04:41:50;;;;;;;10.20;4.82;;;10.70;99.90;;;;;;5053111;28;20434;-88
2023/01/06 04:44:15;;;;;;;10.13;4.63;;;10.70;99.90;;;;;;5036209;28;20040;-88
2023/01/06 04:46:41;;;;;;;9.98;5.35;;;10.70;99.90;;;;;;5053586;28;20074;-88
2023/01/06 04:49:06;;;;;;;9.05;4.53;;;10.70;99.90;;;;;;5053001;28;20045;-88
2023/01/06 04:51:32;;;;;;;9.48;4.55;;;10.70;99.90;;;;;;5036694;28;20056;-88
2023/01/06 04:53:58;;;;;;;10.10;3.97;;;10.70;99.90;;;;;;5036127;28;20040;-88
2023/01/06 04:56:24;;;;;;;10.68;3.83;;;10.70;99.90;;;;;;5036591;28;20406;-88
2023/01/06 04:58:56;;;;;;;7.53;3.50;;;10.70;99.90;;;;;;5036449;28;20102;-88
2023/01/06 05:01:22;;;;;;;9.07;3.60;;;10.80;99.90;;;;;;5036435;28;20032;-87
2023/01/06 05:03:48;;;;;;;8.20;3.25;;;10.70;99.90;;;;;;5052685;28;20115;-88
2023/01/06 05:06:14;;;;;;;8.18;3.45;;;10.70;99.90;;;;;;5036652;28;20167;-88
2023/01/06 05:08:41;;;;;;;6.82;3.45;;;10.70;99.90;;;;;;5036389;28;20033;-88
2023/01/06 05:11:10;;;;;;;8.73;3.92;;;10.70;99.90;;;;;;5052744;28;20041;-88
2023/01/06 05:13:36;;;;;;;6.63;3.25;;;10.70;99.90;;;;;;5035871;28;20033;-88
2023/01/06 05:16:06;;;;;;;7.88;3.25;;;10.80;99.90;;;;;;5036903;28;20039;-88
2023/01/06 05:18:31;;;;;;;8.50;4.13;;;10.70;99.90;;;;;;5053069;28;20044;-88
2023/01/06 05:20:57;;;;;;;8.25;3.65;;;10.70;99.90;;;;;;5036285;28;20033;-88
2023/01/06 05:23:22;;;;;;;8.60;3.90;;;10.70;99.90;;;;;;5036170;28;20140;-88
2023/01/06 05:25:52;;;;;;;6.90;3.10;;;10.70;99.90;;;;;;5052921;28;20489;-88
2023/01/06 05:28:18;;;;;;;7.43;3.47;;;10.70;99.90;;;;;;5036468;28;20066;-88
2023/01/06 05:30:44;;;;;;;8.43;3.33;;;10.80;99.90;;;;;;5052140;28;20037;-88
2023/01/06 05:33:09;;;;;;;8.73;3.50;;;10.80;99.90;;;;;;5052485;28;20040;-88
2023/01/06 05:35:35;;;;;;;6.30;2.95;;;10.70;99.90;;;;;;5032541;28;20037;-88
2023/01/06 05:38:01;;;;;;;7.57;3.05;;;10.70;99.90;;;;;;5052768;28;20120;-88
2023/01/06 05:40:27;;;;;;;7.88;3.13;;;10.70;99.90;;;;;;5035687;28;20045;-88
2023/01/06 05:42:54;;;;;;;6.38;2.95;;;10.70;99.90;;;;;;5052810;28;20041;-88
2023/01/06 05:45:20;;;;;;;7.45;2.72;;;10.70;99.90;;;;;;5035978;28;20074;-88
2023/01/06 05:47:46;;;;;;;6.22;2.60;;;10.80;99.90;;;;;;5052588;28;20395;-88
2023/01/06 05:50:11;;;;;;;9.25;3.13;;;10.80;99.90;;;;;;5036217;28;20123;-88
2023/01/06 05:52:37;;;;;;;8.15;2.83;;;10.80;99.90;;;;;;5035865;28;20040;-88
2023/01/06 05:55:03;;;;;;;6.75;2.63;;;10.80;99.90;;;;;;5035697;28;20032;-87
2023/01/06 05:57:32;;;;;;;5.35;2.35;;;10.80;99.90;;;;;;5052515;28;20044;-88
2023/01/06 05:59:57;;;;;;;7.35;3.10;;;10.80;99.90;;;;;;5052598;28;20048;-88
2023/01/06 06:02:23;;;;;;;10.38;3.05;;;10.70;99.90;;;;;;5035493;28;20036;-88
2023/01/06 06:04:48;;;;;;;10.63;3.35;;;10.70;99.90;;;;;;5052417;28;20040;-88
2023/01/06 06:07:14;;;;;;;6.70;2.28;;;10.70;99.90;;;;;;5036096;28;20044;-87
2023/01/06 06:09:39;;;;;;;6.00;2.45;;;10.70;99.90;;;;;;5036000;28;20044;-88
2023/01/06 06:12:06;;;;;;;6.30;2.17;;;10.70;99.90;;;;;;5039067;28;20033;-88
2023/01/06 06:14:31;;;;;;;9.95;2.92;;;10.70;99.90;;;;;;5055000;28;20032;-89
2023/01/06 06:16:57;;;;;;;7.47;2.70;;;10.70;99.90;;;;;;5038941;28;20050;-89
2023/01/06 06:19:22;;;;;;;8.95;3.08;;;10.80;99.90;;;;;;5055302;28;20048;-88
2023/01/06 06:21:48;;;;;;;8.63;2.35;;;10.80;99.90;;;;;;5055252;28;20044;-88
2023/01/06 06:24:13;;;;;;;6.03;2.30;;;10.80;99.90;;;;;;5038196;28;20652;-88
2023/01/06 06:26:39;;;;;;;9.23;2.53;;;10.70;99.90;;;;;;5055123;28;20033;-88
2023/01/06 06:29:06;;;;;;;6.70;1.98;;;10.70;99.90;;;;;;5055455;28;20482;-88
2023/01/06 06:31:32;;;;;;;6.28;2.30;;;10.70;99.90;;;;;;5038478;28;20036;-88
2023/01/06 06:34:00;;;;;;;8.00;2.78;;;10.70;99.90;;;;;;5054616;28;20036;-88
2023/01/06 06:36:26;;;;;;;8.45;2.38;;;10.70;99.90;;;;;;5055208;28;20075;-88
2023/01/06 06:38:52;;;;;;;6.00;2.10;;;10.70;99.90;;;;;;5054801;28;20040;-88
2023/01/06 06:41:19;;;;;;;6.20;2.28;;;10.70;99.90;;;;;;5054692;28;20095;-88
2023/01/06 06:43:45;;;;;;;6.53;2.20;;;10.70;99.90;;;;;;5037818;28;20413;-88
2023/01/06 06:46:10;;;;;;;6.05;3.08;;;10.70;99.90;;;;;;5038229;28;20063;-89
2023/01/06 06:48:37;;;;;;;5.95;2.40;;;10.60;99.90;;;;;;5054533;28;20033;-88
2023/01/06 06:51:05;;;;;;;8.27;4.03;;;10.60;99.90;;;;;;5055441;28;20501;-88
2023/01/06 06:53:32;;;;;;;8.85;2.83;;;10.70;99.90;;;;;;5038326;28;20078;-88
2023/01/06 06:55:58;;;;;;;8.32;3.47;;;10.60;99.90;;;;;;5038831;28;20051;-88
2023/01/06 06:58:24;;;;;;;7.82;3.10;;;10.60;99.90;;;;;;5038505;28;20029;-88
2023/01/06 07:00:50;;;;;;;8.48;2.53;;;10.50;99.90;;;;;;5037680;28;20032;-88
2023/01/06 07:03:16;;;;;;;8.20;2.92;;;10.50;99.90;;;;;;5037799;28;20413;-88
2023/01/06 07:05:46;;;;;;;7.47;3.20;;;10.40;99.90;;;;;;5037471;28;20169;-88
2023/01/06 07:08:12;;;;;;;8.48;3.22;;;10.40;99.90;;;;;;5054312;28;20051;-88
2023/01/06 07:10:38;;;;;;;7.55;2.78;;;10.30;99.90;;;;;;5054536;28;20033;-89
2023/01/06 07:13:03;;;;;;;8.75;2.97;;;10.40;99.90;;;;;;5054117;28;20036;-89
2023/01/06 07:15:29;;;;;;;8.70;3.25;;;10.40;99.90;;;;;;5054315;28;20075;-89
2023/01/06 07:17:59;;;;;;;8.73;2.83;;;10.30;99.90;;;;;;5054401;28;20044;-89
2023/01/06 07:20:25;;;;;;;9.18;3.03;;;10.30;99.90;;;;;;5037185;28;20085;-89
2023/01/06 07:22:50;;;;;;;6.60;2.67;;;10.30;99.90;;;;;;5054293;28;20044;-89
2023/01/06 07:25:16;;;;;;;7.25;2.72;;;10.30;99.90;;;;;;5054426;28;20048;-89
2023/01/06 07:27:41;;;;;;;6.85;3.38;;;10.30;99.90;;;;;;5054041;28;20053;-88
2023/01/06 07:30:07;;;;;;;7.80;2.97;;;10.20;99.90;;;;;;5053754;28;20123;-89
2023/01/06 07:32:33;;;;;;;7.15;2.70;;;10.30;99.90;;;;;;5053762;28;20052;-88
2023/01/06 07:34:59;;;;;;;8.95;3.58;;;10.30;99.90;;;;;;5036911;28;20115;-88
2023/01/06 07:37:24;;;;;;;6.57;2.95;;;10.30;99.90;;;;;;5037623;28;20043;-88
2023/01/06 07:39:50;;;;;;;10.27;3.00;;;10.30;99.90;;;;;;5036227;28;20032;-89
2023/01/06 07:42:15;;;;;;;8.20;2.70;;;10.30;99.90;;;;;;5037129;28;20047;-88
2023/01/06 07:44:41;;;;;;;7.15;2.88;;;10.30;99.90;;;;;;5053755;28;20081;-89
2023/01/06 07:47:06;;;;;;;5.95;2.60;;;10.30;99.90;;;;;;5053838;28;20085;-89
2023/01/06 07:49:32;;;;;;;7.85;3.47;;;10.40;99.90;;;;;;5036903;28;20067;-89
2023/01/06 07:51:57;;;;;;;6.10;3.05;;;10.30;99.90;;;;;;5053463;28;20113;-89
2023/01/06 07:54:23;;;;;;;8.00;3.47;;;10.40;99.90;;;;;;5036636;28;20036;-89
2023/01/06 07:56:48;;;;;;;5.95;3.08;;;10.40;99.90;;;;;;5037124;28;20459;-88
2023/01/06 07:59:14;;;;;;;5.88;2.70;;;10.40;99.90;;;;;;5052713;28;21416;-88
2023/01/06 08:01:40;;;;;;;6.82;3.42;;;10.40;99.90;;;;;;5052803;28;20032;-89
2023/01/06 08:04:05;;;;;;;8.00;3.15;;;10.40;99.90;;;;;;5035293;28;20032;-89
2023/01/06 08:06:31;;;;;;;8.25;3.10;;;10.40;99.90;;;;;;5037012;28;20039;-89
2023/01/06 08:08:56;;;;;;;7.55;3.50;;;10.30;99.90;;;;;;5036992;28;20164;-89
2023/01/06 08:11:22;;;;;;;8.02;3.70;;;10.40;99.90;;;;;;5053384;28;20032;-90
2023/01/06 08:13:47;;;;;;;7.22;3.30;;;10.40;99.90;;;;;;5052955;28;20035;-89
2023/01/06 08:16:13;;;;;;;7.38;3.65;;;10.40;99.90;;;;;;5053057;28;20040;-88
2023/01/06 08:18:38;;;;;;;7.25;2.63;;;10.40;99.90;;;;;;5036492;28;20037;-89
2023/01/06 08:21:09;;;;;;;6.03;2.53;;;10.40;99.90;;;;;;5052738;28;20039;-89
2023/01/06 08:23:36;;;;;;;7.05;2.22;;;10.40;99.90;;;;;;5052969;28;20040;-89
2023/01/06 08:26:06;;;;;;;5.00;2.17;;;10.50;99.90;;;;;;5035453;28;20415;-88
2023/01/06 08:28:32;;;;;;;10.30;2.92;;;10.50;99.90;;;;;;5036597;28;20040;-89
2023/01/06 08:30:58;;;;;;;5.53;2.25;;;10.50;99.90;;;;;;5035389;28;20040;-89
2023/01/06 08:33:24;;;;;;;5.75;2.50;;;10.50;99.90;;;;;;5052158;28;20036;-89
2023/01/06 08:35:52;;;;;;;4.90;1.95;;;10.50;99.90;;;;;;5036414;28;20035;-88
2023/01/06 08:38:17;;;;;;;2.95;1.35;;;10.60;99.90;;;;;;5052983;28;20044;-89
2023/01/06 08:40:43;;;;;;;4.22;1.73;;;10.50;99.90;;;;;;5036061;28;20051;-88
2023/01/06 08:43:09;;;;;;;5.40;1.63;;;10.60;99.90;;;;;;5035918;28;20571;-88
2023/01/06 08:45:38;;;;;;;2.40;1.30;;;10.50;99.90;;;;;;5052682;28;20036;-88
2023/01/06 08:48:04;;;;;;;2.80;1.15;;;10.50;99.90;;;;;;5035773;28;20516;-89
2023/01/06 08:50:29;;;;;;;2.50;1.08;;;10.40;99.90;;;;;;5052704;28;20559;-88
2023/01/06 08:52:55;;;;;;;4.78;1.13;;;10.40;99.90;;;;;;5035812;28;20512;-88
2023/01/06 08:55:21;;;;;;;3.63;1.63;;;10.40;99.90;;;;;;5052531;28;20035;-88
2023/01/06 08:57:46;;;;;;;5.80;1.50;;;10.30;99.90;;;;;;5036390;28;20032;-88
2023/01/06 09:00:12;;;;;;;5.97;1.50;;;10.30;99.90;;;;;;5035846;28;20461;-88
2023/01/06 09:02:38;;;;;;;3.22;1.20;;;10.30;99.90;;;;;;5052053;28;20040;-88
2023/01/06 09:05:04;;;;;;;5.82;1.98;;;10.30;99.90;;;;;;5035630;28;20043;-88
2023/01/06 09:07:30;;;;;;;4.72;0.80;;;10.30;99.90;;;;;;5077636;28;20047;-88
2023/01/06 09:09:56;;;;;;;5.60;0.88;;;10.20;99.90;;;;;;5033352;28;20106;-88
2023/01/06 09:12:21;;;;;;;2.50;0.95;;;10.20;99.90;;;;;;5052366;28;20041;-88
2023/01/06 09:14:47;;;;;;;4.22;1.00;;;10.20;99.90;;;;;;5052513;28;20037;-88
2023/01/06 09:17:12;;;;;;;3.78;1.02;;;10.20;99.90;;;;;;5035989;28;20374;-86
2023/01/06 09:19:38;;;;;;;8.00;1.30;;;10.20;99.90;;;;;;5051773;28;20052;-88
2023/01/06 09:22:06;;;;;;;3.38;1.17;;;10.20;99.90;;;;;;5034474;28;20045;-88
2023/01/06 09:24:31;;;;;;;9.23;1.40;;;10.20;99.90;;;;;;5054413;28;20115;-87
2023/01/06 09:26:57;;;;;;;6.70;1.83;;;10.20;99.90;;;;;;5046783;28;20576;-88
2023/01/06 09:29:22;;;;;;;5.93;1.20;;;10.20;99.90;;;;;;5031610;28;20025;-88
2023/01/06 09:31:48;;;;;;;5.95;1.23;;;10.20;99.90;;;;;;5033813;28;20800;-88
2023/01/06 09:34:14;;;;;;;5.10;0.98;;;10.20;99.90;;;;;;5051262;28;20035;-88
2023/01/06 09:36:39;;;;;;;6.38;1.42;;;10.30;99.90;;;;;;5051829;28;20044;-88
2023/01/06 09:39:05;;;;;;;6.78;1.05;;;10.20;99.90;;;;;;5052582;28;20040;-88
2023/01/06 09:41:48;;;;;;;8.18;1.42;;;10.20;99.90;;;;;;5051908;28;20037;-88
2023/01/06 09:44:21;;;;;;;3.67;0.98;;;10.20;99.90;;;;;;5037373;28;20044;-88
2023/01/06 09:46:50;;;;;;;4.53;1.08;;;10.20;99.90;;;;;;5039451;28;20037;-88
2023/01/06 09:49:23;;;;;;;6.35;1.20;;;10.20;99.90;;;;;;5039362;28;20043;-88
2023/01/06 09:51:49;;;;;;;6.57;1.35;;;10.20;99.90;;;;;;5039602;28;20394;-89
2023/01/06 09:54:22;;;;;;;6.78;1.45;;;10.20;99.90;;;;;;5038766;28;20762;-88
2023/01/06 09:56:53;;;;;;;6.75;1.80;;;10.20;99.90;;;;;;5039387;28;20055;-89
2023/01/06 09:59:37;;;;;;;5.93;1.40;;;10.20;99.90;;;;;;5038844;28;20045;-89
2023/01/06 10:02:09;;;;;;;4.97;1.13;;;10.20;99.90;;;;;;5055514;28;20037;-89
2023/01/06 10:04:34;;;;;;;13.90;2.07;;;10.20;99.90;;;;;;5055814;28;20040;-88
2023/01/06 10:07:28;;;;;;;8.65;1.30;;;10.20;99.90;;;;;;5055832;28;20098;-88
2023/01/06 10:10:06;;;;;;;;;;;10.20;99.90;;;;;;5033560;28;20039;-89
2023/01/06 10:13:00;;;;;;;5.82;1.00;;;10.20;99.90;;;;;;5063355;28;19955;-89
2023/01/06 10:15:52;;;;;;;7.00;1.63;;;10.30;99.90;;;;;;5055153;28;20037;-89
2023/01/06 10:18:54;;;;;;;5.60;0.80;;;10.30;99.90;;;;;;5055305;28;20052;-89
2023/01/06 10:21:31;;;;;;;6.15;1.05;;;10.30;99.90;;;;;;5051706;28;20037;-88
2023/01/06 10:24:15;;;;;;;5.43;1.02;;;10.30;99.90;;;;;;5031153;28;20131;-89
2023/01/06 10:26:40;;;;;;;8.88;1.13;;;10.40;99.90;;;;;;5055079;28;20071;-89
2023/01/06 10:29:13;;;;;;;5.05;0.80;;;10.30;99.90;;;;;;5038106;28;20059;-88
2023/01/06 10:31:42;;;;;;;3.90;0.82;;;10.40;99.90;;;;;;5054274;28;20406;-89
2023/01/06 10:34:26;;;;;;;6.80;1.20;;;10.50;99.90;;;;;;5054077;28;20071;-89
2023/01/06 10:37:13;;;;;;;9.27;1.38;;;10.50;99.90;;;;;;5038291;28;20124;-89
2023/01/06 10:39:41;;;;;;;6.13;1.58;;;10.60;99.90;;;;;;5038393;28;20508;-89
2023/01/06 10:45:11;;;;;;;7.70;1.60;;;10.60;99.90;;;;;;5054731;28;20044;-89
2023/01/06 10:47:38;;;;;;;6.20;0.90;;;10.70;99.90;;;;;;5037758;28;20041;-89
2023/01/06 10:50:04;;;;;;;8.43;1.30;;;10.70;99.90;;;;;;5037450;28;20033;-89
2023/01/06 10:52:31;;;;;;;6.22;1.33;;;10.80;99.90;;;;;;5038184;28;20375;-89
2023/01/06 10:55:03;;;;;;;7.70;1.13;;;10.70;99.90;;;;;;5037251;28;20123;-89
2023/01/06 10:57:34;;;;;;;11.38;1.33;;;10.80;99.90;;;;;;5054693;28;20032;-89
2023/01/06 11:00:12;;;;;;;9.63;1.50;;;10.70;99.90;;;;;;5037356;28;20040;-89
2023/01/06 11:02:47;;;;;;;6.90;1.08;;;10.70;99.90;;;;;;5030954;28;20559;-89
2023/01/06 11:05:17;;;;;;;6.65;1.40;;;10.60;99.90;;;;;;5037091;28;20037;-90
2023/01/06 11:08:03;;;;;;;9.05;1.33;;;10.60;99.90;;;;;;5037407;28;20115;-89
2023/01/06 11:10:50;;;;;;;7.22;1.33;;;10.70;99.90;;;;;;5053577;28;21348;-89
2023/01/06 11:13:24;;;;;;;6.95;1.45;;;10.80;99.90;;;;;;5037392;28;20494;-89
2023/01/06 11:15:50;;;;;;;4.15;1.35;;;10.90;99.90;;;;;;5053674;28;20122;-89
2023/01/06 11:18:24;;;;;;;8.30;1.35;;;10.90;99.90;;;;;;5036986;28;20510;-89
2023/01/06 11:21:06;;;;;;;9.63;1.50;;;11.00;99.90;;;;;;5053101;28;20063;-89
2023/01/06 11:23:33;;;;;;;8.57;1.20;;;11.10;99.90;;;;;;5035723;28;20045;-89
2023/01/06 11:26:21;;;;;;;7.57;1.67;;;11.20;99.90;;;;;;5054298;28;20451;-90
2023/01/06 11:28:53;;;;;;;7.32;1.35;;;11.30;99.90;;;;;;5037204;28;20037;-89
2023/01/06 11:31:26;;;;;;;6.43;1.35;;;11.30;99.90;;;;;;5037044;28;20037;-89
2023/01/06 11:33:58;;;;;;;6.45;1.42;;;11.30;99.90;;;;;;5036425;28;20037;-90
2023/01/06 11:36:31;;;;;;;7.85;1.50;;;11.40;99.90;;;;;;5037273;28;20079;-90
2023/01/06 11:39:02;;;;;;;9.23;1.45;;;11.40;99.90;;;;;;5037121;28;20106;-90
2023/01/06 11:41:36;;;;;;;7.97;0.90;;;11.50;99.90;;;;;;5037509;28;20036;-90
2023/01/06 11:44:12;;;;;;;8.00;1.52;;;11.50;99.90;;;;;;5036815;28;20107;-90
2023/01/06 11:46:46;;;;;;;7.10;1.15;;;11.50;99.90;;;;;;5036828;28;20098;-89
2023/01/06 11:49:28;;;;;;;6.32;1.23;;;11.50;99.90;;;;;;5052497;28;20446;-90
2023/01/06 11:52:06;;;;;;;11.38;1.92;;;11.50;99.90;;;;;;5052463;28;20078;-90
2023/01/06 11:54:34;;;;;;;7.28;1.50;;;11.50;99.90;;;;;;5053831;28;20063;-90
2023/01/06 11:57:02;;;;;;;9.38;1.25;;;11.60;99.90;;;;;;5036548;28;20119;-89
2023/01/06 11:59:42;;;;;;;8.00;1.02;;;11.60;99.90;;;;;;5053413;28;20037;-90
2023/01/06 12:02:18;;;;;;;6.03;1.20;;;11.80;99.90;;;;;;5036315;28;20387;-90
2023/01/06 12:04:50;;;;;;;10.65;2.00;;;11.90;99.90;;;;;;5053319;28;20529;-90
2023/01/06 12:07:29;;;;;;;2.40;0.80;;;12.20;99.90;;;;;;5035900;28;20127;-90
2023/01/06 12:10:09;;;;;;;9.27;1.27;;;12.50;99.90;;;;;;5052936;28;20032;-91
2023/01/06 12:12:35;;;;;;;7.18;0.90;;;12.70;99.90;;;;;;5035875;28;20028;-90
2023/01/06 12:15:00;;;;;;;8.10;1.50;;;12.80;99.90;;;;;;5036717;28;20031;-90
2023/01/06 12:17:58;;;;;;;11.27;2.40;;;12.70;99.90;;;;;;5036877;28;20085;-90
2023/01/06 12:20:29;;;;;;;9.52;1.02;;;12.60;99.90;;;;;;5035763;28;20071;-90
2023/01/06 12:23:15;;;;;;;8.45;1.38;;;12.60;99.90;;;;;;5052375;28;20040;-91
2023/01/06 12:25:46;;;;;;;5.97;1.02;;;12.50;99.90;;;;;;5033033;28;20040;-90
2023/01/06 12:28:33;;;;;;;5.55;0.95;;;12.40;99.90;;;;;;5047513;28;20052;-90
2023/01/06 12:31:07;;;;;;;5.70;1.30;;;12.20;99.90;;;;;;5036372;28;20032;-90
2023/01/06 12:33:51;;;;;;;6.95;1.10;;;12.00;99.90;;;;;;5034414;28;20081;-90
2023/01/06 12:36:47;;;;;;;7.78;1.20;;;11.90;99.90;;;;;;5062165;28;20115;-90
2023/01/06 12:39:24;;;;;;;4.32;0.82;;;11.90;99.90;;;;;;5045407;28;20064;-90
2023/01/06 12:42:11;;;;;;;6.15;1.02;;;12.10;99.90;;;;;;5051977;28;20037;-90
2023/01/06 12:44:55;;;;;;;6.72;1.05;;;12.30;99.90;;;;;;5054678;28;20040;-91
2023/01/06 12:47:27;;;;;;;7.15;1.23;;;12.40;99.90;;;;;;5036700;28;20394;-90
2023/01/06 12:50:04;;;;;;;7.82;1.23;;;12.50;99.90;;;;;;5037448;28;20119;-91
2023/01/06 12:52:40;;;;;;;15.07;2.60;;;12.50;99.90;;;;;;5035605;28;20032;-90
2023/01/06 12:55:08;;;;;;;9.45;1.90;;;12.90;99.90;;;;;;5040164;28;20116;-90
2023/01/06 12:57:56;;;;;;;8.43;1.27;;;13.50;99.50;;;;;;5036088;28;20040;-90
2023/01/06 13:00:38;;;;;;;9.02;1.73;;;13.60;95.40;;;;;;5078653;28;20035;-89
2023/01/06 13:03:16;;;;;;;10.70;2.10;;;13.80;99.40;;;;;;5042281;28;20182;-90
2023/01/06 13:06:06;;;;;;;12.38;1.95;;;13.70;94.40;;;;;;5040300;28;20090;-90